sensor_id;sensor_type;location;lat;lon;timestamp;P1;durP1;ratioP1;P2;durP2;ratioP2
26864;SDS011;40618;51.166;10.322;2023-07-08T00:00:49;5.00;;;1.77;;
26864;SDS011;40618;51.166;10.322;2023-07-08T00:03:16;2.65;;;1.88;;
26864;SDS011;40618;51.166;10.322;2023-07-08T00:05:44;3.63;;;1.90;;
26864;SDS011;40618;51.166;10.322;2023-07-08T00:08:11;1.92;;;1.73;;
26864;SDS011;40618;51.166;10.322;2023-07-08T00:10:39;4.72;;;1.70;;
26864;SDS011;40618;51.166;10.322;2023-07-08T00:13:05;3.67;;;2.03;;
26864;SDS011;40618;51.166;10.322;2023-07-08T00:15:32;4.38;;;1.90;;
26864;SDS011;40618;51.166;10.322;2023-07-08T00:17:58;2.30;;;1.45;;
26864;SDS011;40618;51.166;10.322;2023-07-08T00:20:39;2.17;;;1.50;;
26864;SDS011;40618;51.166;10.322;2023-07-08T00:23:09;2.35;;;1.40;;
26864;SDS011;40618;51.166;10.322;2023-07-08T00:25:36;2.15;;;1.65;;
26864;SDS011;40618;51.166;10.322;2023-07-08T00:28:16;2.90;;;1.58;;
26864;SDS011;40618;51.166;10.322;2023-07-08T00:30:45;2.17;;;1.63;;
26864;SDS011;40618;51.166;10.322;2023-07-08T00:33:12;3.58;;;1.80;;
26864;SDS011;40618;51.166;10.322;2023-07-08T00:44:07;2.08;;;1.88;;
26864;SDS011;40618;51.166;10.322;2023-07-08T00:46:40;4.75;;;1.92;;
26864;SDS011;40618;51.166;10.322;2023-07-08T00:49:28;3.90;;;1.90;;
26864;SDS011;40618;51.166;10.322;2023-07-08T00:54:42;2.13;;;1.48;;
26864;SDS011;40618;51.166;10.322;2023-07-08T00:57:07;2.20;;;1.70;;
26864;SDS011;40618;51.166;10.322;2023-07-08T00:59:37;3.22;;;1.75;;
26864;SDS011;40618;51.166;10.322;2023-07-08T01:02:09;4.57;;;2.38;;
26864;SDS011;40618;51.166;10.322;2023-07-08T01:04:44;3.60;;;2.00;;
26864;SDS011;40618;51.166;10.322;2023-07-08T01:07:18;3.15;;;2.08;;
26864;SDS011;40618;51.166;10.322;2023-07-08T01:09:47;3.65;;;2.20;;
26864;SDS011;40618;51.166;10.322;2023-07-08T01:12:25;3.10;;;2.30;;
26864;SDS011;40618;51.166;10.322;2023-07-08T01:14:57;14.77;;;2.47;;
26864;SDS011;40618;51.166;10.322;2023-07-08T01:17:27;5.05;;;2.10;;
26864;SDS011;40618;51.166;10.322;2023-07-08T01:19:57;4.32;;;1.90;;
26864;SDS011;40618;51.166;10.322;2023-07-08T01:22:37;3.33;;;1.77;;
26864;SDS011;40618;51.166;10.322;2023-07-08T01:25:04;5.43;;;2.00;;
26864;SDS011;40618;51.166;10.322;2023-07-08T01:27:34;2.50;;;1.95;;
26864;SDS011;40618;51.166;10.322;2023-07-08T01:30:04;2.17;;;1.95;;
26864;SDS011;40618;51.166;10.322;2023-07-08T01:32:36;4.78;;;1.95;;
26864;SDS011;40618;51.166;10.322;2023-07-08T01:35:08;2.58;;;2.13;;
26864;SDS011;40618;51.166;10.322;2023-07-08T01:37:37;4.07;;;1.65;;
26864;SDS011;40618;51.166;10.322;2023-07-08T01:42:55;3.40;;;1.85;;
26864;SDS011;40618;51.166;10.322;2023-07-08T01:45:23;2.70;;;1.70;;
26864;SDS011;40618;51.166;10.322;2023-07-08T01:48:06;3.63;;;1.70;;
26864;SDS011;40618;51.166;10.322;2023-07-08T01:50:36;2.35;;;1.70;;
26864;SDS011;40618;51.166;10.322;2023-07-08T01:53:13;7.07;;;1.67;;
26864;SDS011;40618;51.166;10.322;2023-07-08T01:55:46;2.97;;;1.52;;
26864;SDS011;40618;51.166;10.322;2023-07-08T01:58:12;4.85;;;2.17;;
26864;SDS011;40618;51.166;10.322;2023-07-08T02:00:38;2.55;;;1.55;;
26864;SDS011;40618;51.166;10.322;2023-07-08T02:03:03;3.22;;;1.98;;
26864;SDS011;40618;51.166;10.322;2023-07-08T02:05:29;5.25;;;1.80;;
26864;SDS011;40618;51.166;10.322;2023-07-08T02:07:55;2.90;;;2.00;;
26864;SDS011;40618;51.166;10.322;2023-07-08T02:10:21;3.80;;;1.60;;
26864;SDS011;40618;51.166;10.322;2023-07-08T02:12:47;3.20;;;1.60;;
26864;SDS011;40618;51.166;10.322;2023-07-08T02:15:13;2.13;;;1.75;;
26864;SDS011;40618;51.166;10.322;2023-07-08T02:17:38;3.35;;;1.80;;
26864;SDS011;40618;51.166;10.322;2023-07-08T02:20:04;4.18;;;1.70;;
26864;SDS011;40618;51.166;10.322;2023-07-08T02:22:30;4.43;;;1.67;;
26864;SDS011;40618;51.166;10.322;2023-07-08T02:24:56;3.38;;;2.00;;
26864;SDS011;40618;51.166;10.322;2023-07-08T02:27:22;3.35;;;2.40;;
26864;SDS011;40618;51.166;10.322;2023-07-08T02:29:47;4.25;;;2.00;;
26864;SDS011;40618;51.166;10.322;2023-07-08T02:32:13;3.55;;;2.00;;
26864;SDS011;40618;51.166;10.322;2023-07-08T02:34:38;2.38;;;1.80;;
26864;SDS011;40618;51.166;10.322;2023-07-08T02:37:04;5.72;;;1.80;;
26864;SDS011;40618;51.166;10.322;2023-07-08T02:39:30;1.50;;;1.40;;
26864;SDS011;40618;51.166;10.322;2023-07-08T02:41:55;2.08;;;1.40;;
26864;SDS011;40618;51.166;10.322;2023-07-08T02:44:21;3.10;;;1.50;;
26864;SDS011;40618;51.166;10.322;2023-07-08T02:46:47;2.25;;;1.40;;
26864;SDS011;40618;51.166;10.322;2023-07-08T02:49:13;2.35;;;1.70;;
26864;SDS011;40618;51.166;10.322;2023-07-08T02:51:38;4.68;;;1.73;;
26864;SDS011;40618;51.166;10.322;2023-07-08T02:54:04;4.28;;;1.88;;
26864;SDS011;40618;51.166;10.322;2023-07-08T02:56:29;5.05;;;1.50;;
26864;SDS011;40618;51.166;10.322;2023-07-08T02:58:55;1.98;;;1.55;;
26864;SDS011;40618;51.166;10.322;2023-07-08T03:01:20;2.35;;;1.90;;
26864;SDS011;40618;51.166;10.322;2023-07-08T03:03:46;3.05;;;1.70;;
26864;SDS011;40618;51.166;10.322;2023-07-08T03:06:13;1.80;;;1.30;;
26864;SDS011;40618;51.166;10.322;2023-07-08T03:08:39;2.42;;;1.60;;
26864;SDS011;40618;51.166;10.322;2023-07-08T03:11:06;1.40;;;1.30;;
26864;SDS011;40618;51.166;10.322;2023-07-08T03:13:33;2.28;;;1.45;;
26864;SDS011;40618;51.166;10.322;2023-07-08T03:16:00;2.05;;;1.70;;
26864;SDS011;40618;51.166;10.322;2023-07-08T03:18:28;3.13;;;1.90;;
26864;SDS011;40618;51.166;10.322;2023-07-08T03:20:55;2.63;;;1.55;;
26864;SDS011;40618;51.166;10.322;2023-07-08T03:23:22;2.05;;;1.58;;
26864;SDS011;40618;51.166;10.322;2023-07-08T03:25:49;2.67;;;1.50;;
26864;SDS011;40618;51.166;10.322;2023-07-08T03:28:16;3.20;;;1.52;;
26864;SDS011;40618;51.166;10.322;2023-07-08T03:30:42;2.60;;;1.70;;
26864;SDS011;40618;51.166;10.322;2023-07-08T03:33:10;2.65;;;1.38;;
26864;SDS011;40618;51.166;10.322;2023-07-08T03:35:37;2.40;;;1.48;;
26864;SDS011;40618;51.166;10.322;2023-07-08T03:38:05;4.53;;;2.13;;
26864;SDS011;40618;51.166;10.322;2023-07-08T03:40:31;3.22;;;1.67;;
26864;SDS011;40618;51.166;10.322;2023-07-08T03:42:57;2.85;;;1.67;;
26864;SDS011;40618;51.166;10.322;2023-07-08T03:45:22;2.65;;;1.65;;
26864;SDS011;40618;51.166;10.322;2023-07-08T03:47:50;2.45;;;1.77;;
26864;SDS011;40618;51.166;10.322;2023-07-08T03:50:23;2.22;;;1.60;;
26864;SDS011;40618;51.166;10.322;2023-07-08T03:52:51;1.67;;;1.27;;
26864;SDS011;40618;51.166;10.322;2023-07-08T03:55:19;2.83;;;1.70;;
26864;SDS011;40618;51.166;10.322;2023-07-08T03:57:45;2.65;;;1.73;;
26864;SDS011;40618;51.166;10.322;2023-07-08T04:00:11;3.70;;;2.33;;
26864;SDS011;40618;51.166;10.322;2023-07-08T04:02:39;3.22;;;1.85;;
26864;SDS011;40618;51.166;10.322;2023-07-08T04:05:06;4.13;;;1.92;;
26864;SDS011;40618;51.166;10.322;2023-07-08T04:07:34;4.90;;;2.03;;
26864;SDS011;40618;51.166;10.322;2023-07-08T04:10:00;2.72;;;1.75;;
26864;SDS011;40618;51.166;10.322;2023-07-08T04:12:26;2.92;;;2.10;;
26864;SDS011;40618;51.166;10.322;2023-07-08T04:14:52;2.58;;;2.00;;
26864;SDS011;40618;51.166;10.322;2023-07-08T04:17:18;4.25;;;1.98;;
26864;SDS011;40618;51.166;10.322;2023-07-08T04:19:44;3.40;;;2.15;;
26864;SDS011;40618;51.166;10.322;2023-07-08T04:22:10;3.22;;;2.10;;
26864;SDS011;40618;51.166;10.322;2023-07-08T04:24:36;2.60;;;1.77;;
26864;SDS011;40618;51.166;10.322;2023-07-08T04:27:02;3.33;;;1.90;;
26864;SDS011;40618;51.166;10.322;2023-07-08T04:29:28;1.95;;;1.75;;
26864;SDS011;40618;51.166;10.322;2023-07-08T04:31:54;4.07;;;2.00;;
26864;SDS011;40618;51.166;10.322;2023-07-08T04:34:19;3.30;;;1.65;;
26864;SDS011;40618;51.166;10.322;2023-07-08T04:36:45;3.20;;;1.80;;
26864;SDS011;40618;51.166;10.322;2023-07-08T04:39:11;4.22;;;1.80;;
26864;SDS011;40618;51.166;10.322;2023-07-08T04:41:38;3.75;;;1.58;;
26864;SDS011;40618;51.166;10.322;2023-07-08T04:44:12;3.55;;;1.98;;
26864;SDS011;40618;51.166;10.322;2023-07-08T04:46:39;3.22;;;1.90;;
26864;SDS011;40618;51.166;10.322;2023-07-08T04:49:12;3.20;;;1.55;;
26864;SDS011;40618;51.166;10.322;2023-07-08T04:51:41;4.93;;;1.73;;
26864;SDS011;40618;51.166;10.322;2023-07-08T04:54:07;3.45;;;1.48;;
26864;SDS011;40618;51.166;10.322;2023-07-08T04:59:05;5.28;;;1.70;;
26864;SDS011;40618;51.166;10.322;2023-07-08T05:01:34;1.45;;;1.25;;
26864;SDS011;40618;51.166;10.322;2023-07-08T05:04:00;3.10;;;1.73;;
26864;SDS011;40618;51.166;10.322;2023-07-08T05:06:26;3.90;;;1.58;;
26864;SDS011;40618;51.166;10.322;2023-07-08T05:08:52;2.03;;;1.58;;
26864;SDS011;40618;51.166;10.322;2023-07-08T05:11:18;2.90;;;2.08;;
26864;SDS011;40618;51.166;10.322;2023-07-08T05:13:44;4.30;;;1.98;;
26864;SDS011;40618;51.166;10.322;2023-07-08T05:16:09;2.97;;;1.75;;
26864;SDS011;40618;51.166;10.322;2023-07-08T05:18:35;2.05;;;1.40;;
26864;SDS011;40618;51.166;10.322;2023-07-08T05:21:01;2.58;;;2.20;;
26864;SDS011;40618;51.166;10.322;2023-07-08T05:23:28;3.10;;;2.03;;
26864;SDS011;40618;51.166;10.322;2023-07-08T05:25:54;2.28;;;1.70;;
26864;SDS011;40618;51.166;10.322;2023-07-08T05:28:19;3.53;;;1.92;;
26864;SDS011;40618;51.166;10.322;2023-07-08T05:30:51;3.25;;;2.40;;
26864;SDS011;40618;51.166;10.322;2023-07-08T05:33:20;2.65;;;2.05;;
26864;SDS011;40618;51.166;10.322;2023-07-08T05:35:46;4.95;;;2.20;;
26864;SDS011;40618;51.166;10.322;2023-07-08T05:38:11;7.53;;;2.15;;
26864;SDS011;40618;51.166;10.322;2023-07-08T05:40:37;4.07;;;2.28;;
26864;SDS011;40618;51.166;10.322;2023-07-08T05:43:02;2.75;;;1.83;;
26864;SDS011;40618;51.166;10.322;2023-07-08T05:45:28;2.60;;;1.80;;
26864;SDS011;40618;51.166;10.322;2023-07-08T05:47:54;3.45;;;1.95;;
26864;SDS011;40618;51.166;10.322;2023-07-08T05:50:19;1.95;;;1.58;;
26864;SDS011;40618;51.166;10.322;2023-07-08T05:52:45;4.43;;;1.50;;
26864;SDS011;40618;51.166;10.322;2023-07-08T05:55:10;2.47;;;1.80;;
26864;SDS011;40618;51.166;10.322;2023-07-08T05:57:36;1.92;;;1.55;;
26864;SDS011;40618;51.166;10.322;2023-07-08T06:00:02;2.90;;;1.83;;
26864;SDS011;40618;51.166;10.322;2023-07-08T06:02:29;1.83;;;1.63;;
26864;SDS011;40618;51.166;10.322;2023-07-08T06:04:55;2.72;;;1.70;;
26864;SDS011;40618;51.166;10.322;2023-07-08T06:07:21;3.05;;;1.98;;
26864;SDS011;40618;51.166;10.322;2023-07-08T06:09:46;2.45;;;1.70;;
26864;SDS011;40618;51.166;10.322;2023-07-08T06:12:12;3.38;;;1.90;;
26864;SDS011;40618;51.166;10.322;2023-07-08T06:14:37;2.25;;;1.73;;
26864;SDS011;40618;51.166;10.322;2023-07-08T06:17:03;2.13;;;1.85;;
26864;SDS011;40618;51.166;10.322;2023-07-08T06:19:30;2.30;;;2.00;;
26864;SDS011;40618;51.166;10.322;2023-07-08T06:21:57;2.97;;;1.88;;
26864;SDS011;40618;51.166;10.322;2023-07-08T06:24:23;2.97;;;1.75;;
26864;SDS011;40618;51.166;10.322;2023-07-08T06:26:49;3.42;;;1.83;;
26864;SDS011;40618;51.166;10.322;2023-07-08T06:29:14;4.10;;;1.98;;
26864;SDS011;40618;51.166;10.322;2023-07-08T06:31:41;2.95;;;1.95;;
26864;SDS011;40618;51.166;10.322;2023-07-08T06:34:07;2.30;;;1.70;;
26864;SDS011;40618;51.166;10.322;2023-07-08T06:36:32;3.20;;;2.20;;
26864;SDS011;40618;51.166;10.322;2023-07-08T06:38:58;5.07;;;2.20;;
26864;SDS011;40618;51.166;10.322;2023-07-08T06:41:24;3.05;;;2.10;;
26864;SDS011;40618;51.166;10.322;2023-07-08T06:43:49;2.38;;;1.80;;
26864;SDS011;40618;51.166;10.322;2023-07-08T06:46:15;3.30;;;2.33;;
26864;SDS011;40618;51.166;10.322;2023-07-08T06:48:43;3.67;;;2.30;;
26864;SDS011;40618;51.166;10.322;2023-07-08T06:51:09;3.08;;;1.90;;
26864;SDS011;40618;51.166;10.322;2023-07-08T06:53:35;2.47;;;1.80;;
26864;SDS011;40618;51.166;10.322;2023-07-08T06:56:00;4.72;;;1.80;;
26864;SDS011;40618;51.166;10.322;2023-07-08T06:58:27;4.32;;;2.22;;
26864;SDS011;40618;51.166;10.322;2023-07-08T07:00:53;3.58;;;1.92;;
26864;SDS011;40618;51.166;10.322;2023-07-08T07:03:19;2.80;;;2.05;;
26864;SDS011;40618;51.166;10.322;2023-07-08T07:05:44;7.22;;;2.03;;
26864;SDS011;40618;51.166;10.322;2023-07-08T07:08:10;3.08;;;1.88;;
26864;SDS011;40618;51.166;10.322;2023-07-08T07:10:36;3.40;;;2.00;;
26864;SDS011;40618;51.166;10.322;2023-07-08T07:13:01;3.20;;;2.10;;
26864;SDS011;40618;51.166;10.322;2023-07-08T07:15:27;3.65;;;1.90;;
26864;SDS011;40618;51.166;10.322;2023-07-08T07:17:55;2.75;;;2.00;;
26864;SDS011;40618;51.166;10.322;2023-07-08T07:20:21;2.13;;;1.88;;
26864;SDS011;40618;51.166;10.322;2023-07-08T07:22:47;5.47;;;2.22;;
26864;SDS011;40618;51.166;10.322;2023-07-08T07:25:13;2.65;;;2.10;;
26864;SDS011;40618;51.166;10.322;2023-07-08T07:27:38;3.30;;;2.20;;
26864;SDS011;40618;51.166;10.322;2023-07-08T07:30:04;2.20;;;1.65;;
26864;SDS011;40618;51.166;10.322;2023-07-08T07:32:31;3.78;;;1.85;;
26864;SDS011;40618;51.166;10.322;2023-07-08T07:34:57;4.35;;;2.20;;
26864;SDS011;40618;51.166;10.322;2023-07-08T07:37:24;3.53;;;2.20;;
26864;SDS011;40618;51.166;10.322;2023-07-08T07:39:50;3.25;;;2.20;;
26864;SDS011;40618;51.166;10.322;2023-07-08T07:42:17;4.78;;;2.40;;
26864;SDS011;40618;51.166;10.322;2023-07-08T07:44:44;2.50;;;2.22;;
26864;SDS011;40618;51.166;10.322;2023-07-08T07:47:11;3.60;;;2.20;;
26864;SDS011;40618;51.166;10.322;2023-07-08T07:49:37;3.25;;;2.28;;
26864;SDS011;40618;51.166;10.322;2023-07-08T07:52:04;3.83;;;2.25;;
26864;SDS011;40618;51.166;10.322;2023-07-08T07:54:30;3.10;;;1.90;;
26864;SDS011;40618;51.166;10.322;2023-07-08T07:56:56;4.07;;;2.10;;
26864;SDS011;40618;51.166;10.322;2023-07-08T07:59:22;6.40;;;2.30;;
26864;SDS011;40618;51.166;10.322;2023-07-08T08:01:48;4.80;;;2.10;;
26864;SDS011;40618;51.166;10.322;2023-07-08T08:04:13;3.33;;;2.25;;
26864;SDS011;40618;51.166;10.322;2023-07-08T08:06:39;4.15;;;2.00;;
26864;SDS011;40618;51.166;10.322;2023-07-08T08:09:05;3.22;;;2.50;;
26864;SDS011;40618;51.166;10.322;2023-07-08T08:11:32;3.60;;;1.90;;
26864;SDS011;40618;51.166;10.322;2023-07-08T08:13:58;13.80;;;3.75;;
26864;SDS011;40618;51.166;10.322;2023-07-08T08:16:26;4.32;;;2.50;;
26864;SDS011;40618;51.166;10.322;2023-07-08T08:18:51;4.10;;;2.50;;
26864;SDS011;40618;51.166;10.322;2023-07-08T08:21:17;4.05;;;2.78;;
26864;SDS011;40618;51.166;10.322;2023-07-08T08:23:43;2.80;;;2.15;;
26864;SDS011;40618;51.166;10.322;2023-07-08T08:26:09;3.72;;;2.22;;
26864;SDS011;40618;51.166;10.322;2023-07-08T08:28:34;2.25;;;2.05;;
26864;SDS011;40618;51.166;10.322;2023-07-08T08:31:00;3.17;;;2.08;;
26864;SDS011;40618;51.166;10.322;2023-07-08T08:33:25;2.83;;;2.22;;
26864;SDS011;40618;51.166;10.322;2023-07-08T08:35:51;3.20;;;2.28;;
26864;SDS011;40618;51.166;10.322;2023-07-08T08:38:17;6.10;;;2.78;;
26864;SDS011;40618;51.166;10.322;2023-07-08T08:40:42;3.05;;;2.25;;
26864;SDS011;40618;51.166;10.322;2023-07-08T08:43:10;3.95;;;2.40;;
26864;SDS011;40618;51.166;10.322;2023-07-08T08:45:48;3.22;;;2.40;;
26864;SDS011;40618;51.166;10.322;2023-07-08T08:48:25;2.38;;;1.92;;
26864;SDS011;40618;51.166;10.322;2023-07-08T08:50:57;5.32;;;2.33;;
26864;SDS011;40618;51.166;10.322;2023-07-08T08:53:47;3.58;;;2.28;;
26864;SDS011;40618;51.166;10.322;2023-07-08T08:56:20;3.22;;;2.42;;
26864;SDS011;40618;51.166;10.322;2023-07-08T09:02:57;5.18;;;2.88;;
26864;SDS011;40618;51.166;10.322;2023-07-08T09:05:05;7.60;;;2.50;;
26864;SDS011;40618;51.166;10.322;2023-07-08T09:07:44;4.15;;;2.33;;
26864;SDS011;40618;51.166;10.322;2023-07-08T09:10:30;2.47;;;1.90;;
26864;SDS011;40618;51.166;10.322;2023-07-08T09:13:31;4.07;;;2.30;;
26864;SDS011;40618;51.166;10.322;2023-07-08T09:19:23;2.47;;;2.28;;
26864;SDS011;40618;51.166;10.322;2023-07-08T09:22:34;3.03;;;2.40;;
26864;SDS011;40618;51.166;10.322;2023-07-08T09:28:01;6.35;;;2.38;;
26864;SDS011;40618;51.166;10.322;2023-07-08T09:30:27;4.72;;;2.70;;
26864;SDS011;40618;51.166;10.322;2023-07-08T09:32:55;4.38;;;2.80;;
26864;SDS011;40618;51.166;10.322;2023-07-08T09:35:45;3.92;;;2.83;;
26864;SDS011;40618;51.166;10.322;2023-07-08T09:38:14;2.92;;;2.60;;
26864;SDS011;40618;51.166;10.322;2023-07-08T09:40:48;2.90;;;2.17;;
26864;SDS011;40618;51.166;10.322;2023-07-08T09:45:55;2.88;;;2.38;;
26864;SDS011;40618;51.166;10.322;2023-07-08T09:48:25;4.35;;;3.10;;
26864;SDS011;40618;51.166;10.322;2023-07-08T09:50:59;3.13;;;2.55;;
26864;SDS011;40618;51.166;10.322;2023-07-08T09:53:25;3.95;;;2.85;;
26864;SDS011;40618;51.166;10.322;2023-07-08T09:55:52;3.70;;;3.05;;
26864;SDS011;40618;51.166;10.322;2023-07-08T09:58:27;2.90;;;2.60;;
26864;SDS011;40618;51.166;10.322;2023-07-08T10:00:59;3.25;;;2.53;;
26864;SDS011;40618;51.166;10.322;2023-07-08T10:03:34;2.88;;;2.55;;
26864;SDS011;40618;51.166;10.322;2023-07-08T10:06:05;3.60;;;2.95;;
26864;SDS011;40618;51.166;10.322;2023-07-08T10:08:51;3.13;;;2.83;;
26864;SDS011;40618;51.166;10.322;2023-07-08T10:11:34;3.55;;;2.92;;
26864;SDS011;40618;51.166;10.322;2023-07-08T10:16:53;3.85;;;2.42;;
26864;SDS011;40618;51.166;10.322;2023-07-08T10:19:19;5.05;;;2.92;;
26864;SDS011;40618;51.166;10.322;2023-07-08T10:27:53;3.88;;;2.90;;
26864;SDS011;40618;51.166;10.322;2023-07-08T10:30:49;3.95;;;2.80;;
26864;SDS011;40618;51.166;10.322;2023-07-08T10:33:35;3.00;;;2.70;;
26864;SDS011;40618;51.166;10.322;2023-07-08T10:36:21;3.75;;;3.20;;
26864;SDS011;40618;51.166;10.322;2023-07-08T10:39:14;5.85;;;3.30;;
26864;SDS011;40618;51.166;10.322;2023-07-08T10:41:57;4.38;;;2.90;;
26864;SDS011;40618;51.166;10.322;2023-07-08T10:47:42;3.30;;;3.00;;
26864;SDS011;40618;51.166;10.322;2023-07-08T10:53:12;4.55;;;3.25;;
26864;SDS011;40618;51.166;10.322;2023-07-08T10:56:01;3.55;;;3.05;;
26864;SDS011;40618;51.166;10.322;2023-07-08T10:59:03;4.15;;;2.88;;
26864;SDS011;40618;51.166;10.322;2023-07-08T11:07:23;4.68;;;3.40;;
26864;SDS011;40618;51.166;10.322;2023-07-08T11:10:15;5.38;;;3.35;;
26864;SDS011;40618;51.166;10.322;2023-07-08T11:12:53;4.15;;;2.92;;
26864;SDS011;40618;51.166;10.322;2023-07-08T11:21:21;3.58;;;2.80;;
26864;SDS011;40618;51.166;10.322;2023-07-08T11:23:56;4.43;;;3.53;;
26864;SDS011;40618;51.166;10.322;2023-07-08T11:26:47;3.40;;;2.80;;
26864;SDS011;40618;51.166;10.322;2023-07-08T11:29:22;4.47;;;4.03;;
26864;SDS011;40618;51.166;10.322;2023-07-08T11:32:00;3.35;;;3.05;;
26864;SDS011;40618;51.166;10.322;2023-07-08T11:34:29;7.30;;;3.13;;
26864;SDS011;40618;51.166;10.322;2023-07-08T11:36:58;4.57;;;2.83;;
26864;SDS011;40618;51.166;10.322;2023-07-08T11:39:46;3.65;;;3.00;;
26864;SDS011;40618;51.166;10.322;2023-07-08T11:42:42;3.75;;;3.25;;
26864;SDS011;40618;51.166;10.322;2023-07-08T11:47:44;4.50;;;2.80;;
26864;SDS011;40618;51.166;10.322;2023-07-08T11:52:57;4.90;;;2.70;;
26864;SDS011;40618;51.166;10.322;2023-07-08T11:55:36;4.05;;;2.85;;
26864;SDS011;40618;51.166;10.322;2023-07-08T11:58:25;3.17;;;2.88;;
26864;SDS011;40618;51.166;10.322;2023-07-08T12:03:47;3.60;;;3.03;;
26864;SDS011;40618;51.166;10.322;2023-07-08T12:08:58;3.92;;;3.05;;
26864;SDS011;40618;51.166;10.322;2023-07-08T12:11:34;3.58;;;2.97;;
26864;SDS011;40618;51.166;10.322;2023-07-08T12:14:01;4.15;;;3.08;;
26864;SDS011;40618;51.166;10.322;2023-07-08T12:16:29;3.60;;;3.20;;
26864;SDS011;40618;51.166;10.322;2023-07-08T12:18:59;4.32;;;3.00;;
26864;SDS011;40618;51.166;10.322;2023-07-08T12:21:29;3.63;;;3.10;;
26864;SDS011;40618;51.166;10.322;2023-07-08T12:24:03;3.30;;;2.97;;
26864;SDS011;40618;51.166;10.322;2023-07-08T12:26:31;4.75;;;3.38;;
26864;SDS011;40618;51.166;10.322;2023-07-08T12:28:58;3.63;;;3.30;;
26864;SDS011;40618;51.166;10.322;2023-07-08T12:31:24;6.93;;;3.67;;
26864;SDS011;40618;51.166;10.322;2023-07-08T12:33:50;5.28;;;3.05;;
26864;SDS011;40618;51.166;10.322;2023-07-08T12:36:24;4.28;;;3.30;;
26864;SDS011;40618;51.166;10.322;2023-07-08T12:38:55;4.15;;;3.10;;
26864;SDS011;40618;51.166;10.322;2023-07-08T12:41:24;3.40;;;2.95;;
26864;SDS011;40618;51.166;10.322;2023-07-08T12:43:54;3.42;;;3.13;;
26864;SDS011;40618;51.166;10.322;2023-07-08T12:46:21;3.58;;;2.97;;
26864;SDS011;40618;51.166;10.322;2023-07-08T12:48:48;3.08;;;2.60;;
26864;SDS011;40618;51.166;10.322;2023-07-08T12:51:16;3.38;;;2.95;;
26864;SDS011;40618;51.166;10.322;2023-07-08T12:53:46;5.32;;;3.55;;
26864;SDS011;40618;51.166;10.322;2023-07-08T12:56:13;3.83;;;3.50;;
26864;SDS011;40618;51.166;10.322;2023-07-08T12:58:41;4.68;;;3.03;;
26864;SDS011;40618;51.166;10.322;2023-07-08T13:01:15;3.70;;;3.38;;
26864;SDS011;40618;51.166;10.322;2023-07-08T13:03:45;4.13;;;3.22;;
26864;SDS011;40618;51.166;10.322;2023-07-08T13:06:17;5.57;;;4.25;;
26864;SDS011;40618;51.166;10.322;2023-07-08T13:08:48;3.45;;;3.15;;
26864;SDS011;40618;51.166;10.322;2023-07-08T13:11:15;3.40;;;3.10;;
26864;SDS011;40618;51.166;10.322;2023-07-08T13:13:49;3.22;;;2.92;;
26864;SDS011;40618;51.166;10.322;2023-07-08T13:16:21;3.40;;;3.10;;
26864;SDS011;40618;51.166;10.322;2023-07-08T13:18:54;5.18;;;3.13;;
26864;SDS011;40618;51.166;10.322;2023-07-08T13:21:21;3.67;;;3.08;;
26864;SDS011;40618;51.166;10.322;2023-07-08T13:23:49;4.72;;;3.22;;
26864;SDS011;40618;51.166;10.322;2023-07-08T13:26:16;3.95;;;3.10;;
26864;SDS011;40618;51.166;10.322;2023-07-08T13:31:23;3.90;;;2.90;;
26864;SDS011;40618;51.166;10.322;2023-07-08T13:33:56;6.00;;;3.17;;
26864;SDS011;40618;51.166;10.322;2023-07-08T13:36:32;5.05;;;3.30;;
26864;SDS011;40618;51.166;10.322;2023-07-08T13:39:01;6.05;;;3.88;;
26864;SDS011;40618;51.166;10.322;2023-07-08T13:41:31;3.25;;;2.80;;
26864;SDS011;40618;51.166;10.322;2023-07-08T13:43:57;4.55;;;3.60;;
26864;SDS011;40618;51.166;10.322;2023-07-08T13:49:12;9.35;;;3.20;;
26864;SDS011;40618;51.166;10.322;2023-07-08T13:51:45;4.13;;;2.65;;
26864;SDS011;40618;51.166;10.322;2023-07-08T13:56:44;3.50;;;3.20;;
26864;SDS011;40618;51.166;10.322;2023-07-08T13:59:22;5.25;;;3.33;;
26864;SDS011;40618;51.166;10.322;2023-07-08T14:01:51;3.45;;;2.83;;
26864;SDS011;40618;51.166;10.322;2023-07-08T14:04:30;3.88;;;2.97;;
26864;SDS011;40618;51.166;10.322;2023-07-08T14:06:59;4.87;;;3.43;;
26864;SDS011;40618;51.166;10.322;2023-07-08T14:09:25;3.28;;;2.90;;
26864;SDS011;40618;51.166;10.322;2023-07-08T14:11:51;2.97;;;2.67;;
26864;SDS011;40618;51.166;10.322;2023-07-08T14:14:18;3.65;;;3.05;;
26864;SDS011;40618;51.166;10.322;2023-07-08T14:16:44;5.45;;;2.88;;
26864;SDS011;40618;51.166;10.322;2023-07-08T14:19:15;3.15;;;2.78;;
26864;SDS011;40618;51.166;10.322;2023-07-08T14:21:49;6.22;;;3.50;;
26864;SDS011;40618;51.166;10.322;2023-07-08T14:24:21;3.25;;;2.90;;
26864;SDS011;40618;51.166;10.322;2023-07-08T14:26:48;3.17;;;2.88;;
26864;SDS011;40618;51.166;10.322;2023-07-08T14:29:14;5.93;;;3.17;;
26864;SDS011;40618;51.166;10.322;2023-07-08T14:31:40;3.38;;;3.08;;
26864;SDS011;40618;51.166;10.322;2023-07-08T14:34:07;3.78;;;3.40;;
26864;SDS011;40618;51.166;10.322;2023-07-08T14:36:37;4.43;;;3.20;;
26864;SDS011;40618;51.166;10.322;2023-07-08T14:39:13;3.65;;;3.15;;
26864;SDS011;40618;51.166;10.322;2023-07-08T14:41:42;3.33;;;3.03;;
26864;SDS011;40618;51.166;10.322;2023-07-08T14:44:19;3.50;;;3.20;;
26864;SDS011;40618;51.166;10.322;2023-07-08T14:46:48;3.70;;;3.35;;
26864;SDS011;40618;51.166;10.322;2023-07-08T14:49:15;3.13;;;2.83;;
26864;SDS011;40618;51.166;10.322;2023-07-08T14:51:47;3.20;;;2.90;;
26864;SDS011;40618;51.166;10.322;2023-07-08T14:54:13;3.17;;;2.88;;
26864;SDS011;40618;51.166;10.322;2023-07-08T14:56:39;3.17;;;2.88;;
26864;SDS011;40618;51.166;10.322;2023-07-08T14:59:10;4.07;;;3.15;;
26864;SDS011;40618;51.166;10.322;2023-07-08T15:01:41;3.85;;;3.08;;
26864;SDS011;40618;51.166;10.322;2023-07-08T15:04:12;4.10;;;3.03;;
26864;SDS011;40618;51.166;10.322;2023-07-08T15:06:41;6.05;;;3.67;;
26864;SDS011;40618;51.166;10.322;2023-07-08T15:09:08;3.50;;;3.20;;
26864;SDS011;40618;51.166;10.322;2023-07-08T15:11:35;3.50;;;3.20;;
26864;SDS011;40618;51.166;10.322;2023-07-08T15:14:09;3.50;;;3.03;;
26864;SDS011;40618;51.166;10.322;2023-07-08T15:16:43;3.20;;;2.65;;
26864;SDS011;40618;51.166;10.322;2023-07-08T15:19:11;4.13;;;2.70;;
26864;SDS011;40618;51.166;10.322;2023-07-08T15:21:38;4.18;;;3.53;;
26864;SDS011;40618;51.166;10.322;2023-07-08T15:24:08;4.25;;;3.30;;
26864;SDS011;40618;51.166;10.322;2023-07-08T15:26:42;4.15;;;2.80;;
26864;SDS011;40618;51.166;10.322;2023-07-08T15:29:12;3.92;;;3.53;;
26864;SDS011;40618;51.166;10.322;2023-07-08T15:31:42;4.03;;;3.20;;
26864;SDS011;40618;51.166;10.322;2023-07-08T15:34:19;4.20;;;3.22;;
26864;SDS011;40618;51.166;10.322;2023-07-08T15:36:47;4.10;;;3.08;;
26864;SDS011;40618;51.166;10.322;2023-07-08T15:39:14;5.38;;;2.45;;
26864;SDS011;40618;51.166;10.322;2023-07-08T15:41:40;6.50;;;3.17;;
26864;SDS011;40618;51.166;10.322;2023-07-08T15:46:46;5.78;;;3.38;;
26864;SDS011;40618;51.166;10.322;2023-07-08T15:49:22;3.25;;;2.95;;
26864;SDS011;40618;51.166;10.322;2023-07-08T15:51:52;3.50;;;3.17;;
26864;SDS011;40618;51.166;10.322;2023-07-08T15:54:18;4.13;;;3.33;;
26864;SDS011;40618;51.166;10.322;2023-07-08T15:56:44;9.23;;;3.33;;
26864;SDS011;40618;51.166;10.322;2023-07-08T15:59:17;4.32;;;3.17;;
26864;SDS011;40618;51.166;10.322;2023-07-08T16:01:50;3.47;;;3.17;;
26864;SDS011;40618;51.166;10.322;2023-07-08T16:04:23;3.08;;;2.58;;